sensor_id;sensor_type;location;lat;lon;timestamp;P1;durP1;ratioP1;P2;durP2;ratioP2
76115;SDS011;64847;45.778;12.802;2023-06-10T00:00:00;7.65;;;7.07;;
76115;SDS011;64847;45.778;12.802;2023-06-10T00:02:26;9.23;;;8.52;;
76115;SDS011;64847;45.778;12.802;2023-06-10T00:04:52;9.35;;;8.52;;
76115;SDS011;64847;45.778;12.802;2023-06-10T00:07:17;9.13;;;7.68;;
76115;SDS011;64847;45.778;12.802;2023-06-10T00:09:43;7.97;;;7.25;;
76115;SDS011;64847;45.778;12.802;2023-06-10T00:12:09;9.52;;;8.73;;
76115;SDS011;64847;45.778;12.802;2023-06-10T00:14:38;10.23;;;9.35;;
76115;SDS011;64847;45.778;12.802;2023-06-10T00:17:04;9.98;;;9.07;;
76115;SDS011;64847;45.778;12.802;2023-06-10T00:19:30;8.63;;;7.95;;
76115;SDS011;64847;45.778;12.802;2023-06-10T00:21:55;9.68;;;8.95;;
76115;SDS011;64847;45.778;12.802;2023-06-10T00:24:21;9.15;;;8.40;;
76115;SDS011;64847;45.778;12.802;2023-06-10T00:26:47;10.05;;;9.32;;
76115;SDS011;64847;45.778;12.802;2023-06-10T00:29:12;9.18;;;8.48;;
76115;SDS011;64847;45.778;12.802;2023-06-10T00:31:39;9.32;;;8.63;;
76115;SDS011;64847;45.778;12.802;2023-06-10T00:34:05;9.35;;;8.55;;
76115;SDS011;64847;45.778;12.802;2023-06-10T00:36:30;10.10;;;9.30;;
76115;SDS011;64847;45.778;12.802;2023-06-10T00:38:56;9.82;;;9.13;;
76115;SDS011;64847;45.778;12.802;2023-06-10T00:41:22;9.93;;;9.18;;
76115;SDS011;64847;45.778;12.802;2023-06-10T00:43:47;9.52;;;8.82;;
76115;SDS011;64847;45.778;12.802;2023-06-10T00:46:13;10.02;;;9.18;;
76115;SDS011;64847;45.778;12.802;2023-06-10T00:48:39;9.93;;;9.20;;
76115;SDS011;64847;45.778;12.802;2023-06-10T00:51:05;10.45;;;9.65;;
76115;SDS011;64847;45.778;12.802;2023-06-10T00:53:31;9.82;;;9.02;;
76115;SDS011;64847;45.778;12.802;2023-06-10T00:55:57;9.43;;;8.75;;
76115;SDS011;64847;45.778;12.802;2023-06-10T00:58:23;10.20;;;9.40;;
76115;SDS011;64847;45.778;12.802;2023-06-10T01:00:48;10.57;;;9.70;;
76115;SDS011;64847;45.778;12.802;2023-06-10T01:03:15;10.77;;;9.93;;
76115;SDS011;64847;45.778;12.802;2023-06-10T01:05:42;10.00;;;9.18;;
76115;SDS011;64847;45.778;12.802;2023-06-10T01:10:50;11.63;;;10.73;;
76115;SDS011;64847;45.778;12.802;2023-06-10T01:13:18;11.80;;;10.90;;
76115;SDS011;64847;45.778;12.802;2023-06-10T01:15:48;11.45;;;10.55;;
76115;SDS011;64847;45.778;12.802;2023-06-10T01:18:13;10.80;;;9.82;;
76115;SDS011;64847;45.778;12.802;2023-06-10T01:20:40;10.15;;;9.40;;
76115;SDS011;64847;45.778;12.802;2023-06-10T01:23:07;10.88;;;9.98;;
76115;SDS011;64847;45.778;12.802;2023-06-10T01:25:33;9.73;;;9.02;;
76115;SDS011;64847;45.778;12.802;2023-06-10T01:30:48;10.20;;;9.32;;
76115;SDS011;64847;45.778;12.802;2023-06-10T01:33:34;10.23;;;9.45;;
76115;SDS011;64847;45.778;12.802;2023-06-10T01:36:02;10.93;;;9.93;;
76115;SDS011;64847;45.778;12.802;2023-06-10T01:38:30;12.00;;;11.00;;
76115;SDS011;64847;45.778;12.802;2023-06-10T01:40:56;11.18;;;10.23;;
76115;SDS011;64847;45.778;12.802;2023-06-10T01:43:22;10.52;;;9.63;;
76115;SDS011;64847;45.778;12.802;2023-06-10T01:45:48;12.10;;;11.20;;
76115;SDS011;64847;45.778;12.802;2023-06-10T01:48:13;11.75;;;10.82;;
76115;SDS011;64847;45.778;12.802;2023-06-10T01:50:39;12.93;;;11.82;;
76115;SDS011;64847;45.778;12.802;2023-06-10T01:53:04;14.40;;;13.00;;
76115;SDS011;64847;45.778;12.802;2023-06-10T01:55:32;12.85;;;11.73;;
76115;SDS011;64847;45.778;12.802;2023-06-10T01:57:58;12.90;;;11.90;;
76115;SDS011;64847;45.778;12.802;2023-06-10T02:00:23;14.25;;;13.02;;
76115;SDS011;64847;45.778;12.802;2023-06-10T02:02:49;13.20;;;11.95;;
76115;SDS011;64847;45.778;12.802;2023-06-10T02:05:14;13.10;;;11.93;;
76115;SDS011;64847;45.778;12.802;2023-06-10T02:07:40;13.97;;;12.67;;
76115;SDS011;64847;45.778;12.802;2023-06-10T02:10:06;12.03;;;11.03;;
76115;SDS011;64847;45.778;12.802;2023-06-10T02:12:31;13.43;;;12.32;;
76115;SDS011;64847;45.778;12.802;2023-06-10T02:14:57;14.38;;;13.15;;
76115;SDS011;64847;45.778;12.802;2023-06-10T02:17:22;13.98;;;12.75;;
76115;SDS011;64847;45.778;12.802;2023-06-10T02:19:48;12.43;;;11.35;;
76115;SDS011;64847;45.778;12.802;2023-06-10T02:22:19;12.13;;;11.13;;
76115;SDS011;64847;45.778;12.802;2023-06-10T02:24:48;12.07;;;11.07;;
76115;SDS011;64847;45.778;12.802;2023-06-10T02:27:14;11.75;;;10.90;;
76115;SDS011;64847;45.778;12.802;2023-06-10T02:29:40;13.03;;;12.03;;
76115;SDS011;64847;45.778;12.802;2023-06-10T02:32:06;11.82;;;10.82;;
76115;SDS011;64847;45.778;12.802;2023-06-10T02:34:32;10.63;;;9.82;;
76115;SDS011;64847;45.778;12.802;2023-06-10T02:36:58;12.00;;;11.05;;
76115;SDS011;64847;45.778;12.802;2023-06-10T02:39:24;12.15;;;11.13;;
76115;SDS011;64847;45.778;12.802;2023-06-10T02:41:49;10.65;;;9.77;;
76115;SDS011;64847;45.778;12.802;2023-06-10T02:44:15;10.98;;;10.07;;
76115;SDS011;64847;45.778;12.802;2023-06-10T02:46:40;10.98;;;10.07;;
76115;SDS011;64847;45.778;12.802;2023-06-10T02:49:05;10.80;;;9.80;;
76115;SDS011;64847;45.778;12.802;2023-06-10T02:51:31;11.07;;;10.02;;
76115;SDS011;64847;45.778;12.802;2023-06-10T02:53:56;10.25;;;9.35;;
76115;SDS011;64847;45.778;12.802;2023-06-10T02:56:21;11.05;;;9.77;;
76115;SDS011;64847;45.778;12.802;2023-06-10T02:58:47;11.20;;;10.20;;
76115;SDS011;64847;45.778;12.802;2023-06-10T03:01:13;11.23;;;10.33;;
76115;SDS011;64847;45.778;12.802;2023-06-10T03:03:39;9.85;;;9.07;;
76115;SDS011;64847;45.778;12.802;2023-06-10T03:06:07;10.50;;;9.70;;
76115;SDS011;64847;45.778;12.802;2023-06-10T03:08:35;10.85;;;10.05;;
76115;SDS011;64847;45.778;12.802;2023-06-10T03:11:01;12.20;;;10.50;;
76115;SDS011;64847;45.778;12.802;2023-06-10T03:13:26;10.80;;;9.80;;
76115;SDS011;64847;45.778;12.802;2023-06-10T03:15:51;10.80;;;10.00;;
76115;SDS011;64847;45.778;12.802;2023-06-10T03:18:17;8.45;;;7.85;;
76115;SDS011;64847;45.778;12.802;2023-06-10T03:20:43;9.68;;;8.77;;
76115;SDS011;64847;45.778;12.802;2023-06-10T03:23:09;10.23;;;9.23;;
76115;SDS011;64847;45.778;12.802;2023-06-10T03:25:35;9.60;;;8.90;;
76115;SDS011;64847;45.778;12.802;2023-06-10T03:28:00;9.83;;;9.00;;
76115;SDS011;64847;45.778;12.802;2023-06-10T03:30:27;9.50;;;8.65;;
76115;SDS011;64847;45.778;12.802;2023-06-10T03:32:52;8.23;;;7.53;;
76115;SDS011;64847;45.778;12.802;2023-06-10T03:35:18;8.60;;;8.00;;
76115;SDS011;64847;45.778;12.802;2023-06-10T03:37:43;9.07;;;8.27;;
76115;SDS011;64847;45.778;12.802;2023-06-10T03:40:09;7.90;;;7.20;;
76115;SDS011;64847;45.778;12.802;2023-06-10T03:42:35;7.38;;;6.88;;
76115;SDS011;64847;45.778;12.802;2023-06-10T03:45:00;7.57;;;6.95;;
76115;SDS011;64847;45.778;12.802;2023-06-10T03:47:26;7.90;;;7.30;;
76115;SDS011;64847;45.778;12.802;2023-06-10T03:49:51;7.10;;;6.50;;
76115;SDS011;64847;45.778;12.802;2023-06-10T03:52:18;7.32;;;6.57;;
76115;SDS011;64847;45.778;12.802;2023-06-10T03:54:43;7.05;;;6.45;;
76115;SDS011;64847;45.778;12.802;2023-06-10T03:57:08;7.13;;;6.53;;
76115;SDS011;64847;45.778;12.802;2023-06-10T03:59:34;6.97;;;6.47;;
76115;SDS011;64847;45.778;12.802;2023-06-10T04:02:00;7.07;;;6.50;;
76115;SDS011;64847;45.778;12.802;2023-06-10T04:04:26;6.50;;;6.00;;
76115;SDS011;64847;45.778;12.802;2023-06-10T04:06:51;7.05;;;6.50;;
76115;SDS011;64847;45.778;12.802;2023-06-10T04:09:17;6.90;;;6.40;;
76115;SDS011;64847;45.778;12.802;2023-06-10T04:11:42;7.05;;;6.45;;
76115;SDS011;64847;45.778;12.802;2023-06-10T04:14:08;6.53;;;6.03;;
76115;SDS011;64847;45.778;12.802;2023-06-10T04:16:33;6.68;;;6.07;;
76115;SDS011;64847;45.778;12.802;2023-06-10T04:18:59;7.60;;;7.00;;
76115;SDS011;64847;45.778;12.802;2023-06-10T04:21:25;6.97;;;6.55;;
76115;SDS011;64847;45.778;12.802;2023-06-10T04:23:51;6.60;;;6.10;;
76115;SDS011;64847;45.778;12.802;2023-06-10T04:26:16;7.35;;;6.85;;
76115;SDS011;64847;45.778;12.802;2023-06-10T04:28:45;6.75;;;6.22;;
76115;SDS011;64847;45.778;12.802;2023-06-10T04:31:10;6.18;;;5.78;;
76115;SDS011;64847;45.778;12.802;2023-06-10T04:33:36;6.07;;;5.60;;
76115;SDS011;64847;45.778;12.802;2023-06-10T04:36:02;6.57;;;6.10;;
76115;SDS011;64847;45.778;12.802;2023-06-10T04:38:27;6.03;;;5.53;;
76115;SDS011;64847;45.778;12.802;2023-06-10T04:40:53;6.18;;;5.57;;
76115;SDS011;64847;45.778;12.802;2023-06-10T04:43:18;6.43;;;5.82;;
76115;SDS011;64847;45.778;12.802;2023-06-10T04:45:44;5.80;;;5.40;;
76115;SDS011;64847;45.778;12.802;2023-06-10T04:48:12;5.68;;;5.20;;
76115;SDS011;64847;45.778;12.802;2023-06-10T04:50:38;6.63;;;6.03;;
76115;SDS011;64847;45.778;12.802;2023-06-10T04:53:05;5.45;;;5.00;;
76115;SDS011;64847;45.778;12.802;2023-06-10T04:55:31;6.05;;;5.55;;
76115;SDS011;64847;45.778;12.802;2023-06-10T04:57:56;5.72;;;5.22;;
76115;SDS011;64847;45.778;12.802;2023-06-10T05:00:22;6.05;;;5.60;;
76115;SDS011;64847;45.778;12.802;2023-06-10T05:02:48;5.82;;;5.43;;
76115;SDS011;64847;45.778;12.802;2023-06-10T05:05:15;6.20;;;5.70;;
76115;SDS011;64847;45.778;12.802;2023-06-10T05:07:41;5.85;;;5.45;;
76115;SDS011;64847;45.778;12.802;2023-06-10T05:10:07;6.03;;;5.43;;
76115;SDS011;64847;45.778;12.802;2023-06-10T05:12:33;5.90;;;5.50;;
76115;SDS011;64847;45.778;12.802;2023-06-10T05:14:58;5.85;;;5.45;;
76115;SDS011;64847;45.778;12.802;2023-06-10T05:17:24;6.00;;;5.60;;
76115;SDS011;64847;45.778;12.802;2023-06-10T05:19:50;5.75;;;5.22;;
76115;SDS011;64847;45.778;12.802;2023-06-10T05:22:16;5.80;;;5.43;;
76115;SDS011;64847;45.778;12.802;2023-06-10T05:24:43;6.15;;;5.75;;
76115;SDS011;64847;45.778;12.802;2023-06-10T05:27:09;6.03;;;5.55;;
76115;SDS011;64847;45.778;12.802;2023-06-10T05:29:35;5.65;;;5.30;;
76115;SDS011;64847;45.778;12.802;2023-06-10T05:32:00;6.32;;;5.93;;
76115;SDS011;64847;45.778;12.802;2023-06-10T05:34:28;6.15;;;5.75;;
76115;SDS011;64847;45.778;12.802;2023-06-10T05:36:54;6.68;;;6.07;;
76115;SDS011;64847;45.778;12.802;2023-06-10T05:39:19;6.72;;;6.15;;
76115;SDS011;64847;45.778;12.802;2023-06-10T05:41:45;6.95;;;6.53;;
76115;SDS011;64847;45.778;12.802;2023-06-10T05:44:11;5.68;;;5.35;;
76115;SDS011;64847;45.778;12.802;2023-06-10T05:46:36;6.45;;;5.97;;
76115;SDS011;64847;45.778;12.802;2023-06-10T05:49:01;6.50;;;6.00;;
76115;SDS011;64847;45.778;12.802;2023-06-10T05:51:27;6.70;;;6.18;;
76115;SDS011;64847;45.778;12.802;2023-06-10T05:53:53;6.55;;;5.95;;
76115;SDS011;64847;45.778;12.802;2023-06-10T05:56:19;6.60;;;6.10;;
76115;SDS011;64847;45.778;12.802;2023-06-10T05:58:46;6.55;;;6.05;;
76115;SDS011;64847;45.778;12.802;2023-06-10T06:01:11;6.28;;;5.88;;
76115;SDS011;64847;45.778;12.802;2023-06-10T06:03:37;6.93;;;6.50;;
76115;SDS011;64847;45.778;12.802;2023-06-10T06:06:02;7.00;;;6.15;;
76115;SDS011;64847;45.778;12.802;2023-06-10T06:08:29;8.23;;;6.82;;
76115;SDS011;64847;45.778;12.802;2023-06-10T06:10:54;6.95;;;6.45;;
76115;SDS011;64847;45.778;12.802;2023-06-10T06:13:20;6.88;;;6.28;;
76115;SDS011;64847;45.778;12.802;2023-06-10T06:15:45;6.25;;;5.85;;
76115;SDS011;64847;45.778;12.802;2023-06-10T06:18:10;5.82;;;5.50;;
76115;SDS011;64847;45.778;12.802;2023-06-10T06:20:36;6.35;;;5.93;;
76115;SDS011;64847;45.778;12.802;2023-06-10T06:23:01;6.47;;;6.05;;
76115;SDS011;64847;45.778;12.802;2023-06-10T06:25:27;5.75;;;5.35;;
76115;SDS011;64847;45.778;12.802;2023-06-10T06:27:52;5.55;;;5.25;;
76115;SDS011;64847;45.778;12.802;2023-06-10T06:30:17;5.10;;;4.80;;
76115;SDS011;64847;45.778;12.802;2023-06-10T06:32:43;5.20;;;4.90;;
76115;SDS011;64847;45.778;12.802;2023-06-10T06:35:08;5.63;;;5.22;;
76115;SDS011;64847;45.778;12.802;2023-06-10T06:37:35;5.80;;;5.40;;
76115;SDS011;64847;45.778;12.802;2023-06-10T06:40:00;5.43;;;5.03;;
76115;SDS011;64847;45.778;12.802;2023-06-10T06:42:26;5.22;;;4.93;;
76115;SDS011;64847;45.778;12.802;2023-06-10T06:44:51;5.47;;;5.07;;
76115;SDS011;64847;45.778;12.802;2023-06-10T06:47:17;5.72;;;5.40;;
76115;SDS011;64847;45.778;12.802;2023-06-10T06:49:48;5.35;;;5.05;;
76115;SDS011;64847;45.778;12.802;2023-06-10T06:52:14;4.90;;;4.60;;
76115;SDS011;64847;45.778;12.802;2023-06-10T06:54:41;4.60;;;4.28;;
76115;SDS011;64847;45.778;12.802;2023-06-10T06:57:07;4.10;;;3.80;;
76115;SDS011;64847;45.778;12.802;2023-06-10T06:59:32;3.72;;;3.53;;
76115;SDS011;64847;45.778;12.802;2023-06-10T07:01:58;4.28;;;4.05;;
76115;SDS011;64847;45.778;12.802;2023-06-10T07:04:23;4.50;;;4.22;;
76115;SDS011;64847;45.778;12.802;2023-06-10T07:06:49;3.97;;;3.78;;
76115;SDS011;64847;45.778;12.802;2023-06-10T07:09:15;4.20;;;3.90;;
76115;SDS011;64847;45.778;12.802;2023-06-10T07:11:40;4.25;;;3.95;;
76115;SDS011;64847;45.778;12.802;2023-06-10T07:14:06;3.78;;;3.58;;
76115;SDS011;64847;45.778;12.802;2023-06-10T07:16:32;4.32;;;4.07;;
76115;SDS011;64847;45.778;12.802;2023-06-10T07:18:57;4.40;;;4.10;;
76115;SDS011;64847;45.778;12.802;2023-06-10T07:21:23;4.68;;;4.38;;
76115;SDS011;64847;45.778;12.802;2023-06-10T07:23:48;3.85;;;3.65;;
76115;SDS011;64847;45.778;12.802;2023-06-10T07:26:14;4.35;;;4.07;;
76115;SDS011;64847;45.778;12.802;2023-06-10T07:28:43;3.95;;;3.75;;
76115;SDS011;64847;45.778;12.802;2023-06-10T07:31:08;4.30;;;3.95;;
76115;SDS011;64847;45.778;12.802;2023-06-10T07:33:34;4.25;;;4.05;;
76115;SDS011;64847;45.778;12.802;2023-06-10T07:36:00;5.13;;;4.80;;
76115;SDS011;64847;45.778;12.802;2023-06-10T07:38:25;4.53;;;4.22;;
76115;SDS011;64847;45.778;12.802;2023-06-10T07:40:51;3.83;;;3.53;;
76115;SDS011;64847;45.778;12.802;2023-06-10T07:43:16;3.63;;;3.42;;
76115;SDS011;64847;45.778;12.802;2023-06-10T07:45:42;4.22;;;3.97;;
76115;SDS011;64847;45.778;12.802;2023-06-10T07:48:08;4.30;;;4.05;;
76115;SDS011;64847;45.778;12.802;2023-06-10T07:50:33;4.65;;;4.35;;
76115;SDS011;64847;45.778;12.802;2023-06-10T07:52:59;3.85;;;3.65;;
76115;SDS011;64847;45.778;12.802;2023-06-10T07:55:25;4.20;;;3.90;;
76115;SDS011;64847;45.778;12.802;2023-06-10T07:57:54;3.95;;;3.78;;
76115;SDS011;64847;45.778;12.802;2023-06-10T08:00:19;4.07;;;3.88;;
76115;SDS011;64847;45.778;12.802;2023-06-10T08:02:45;4.68;;;4.38;;
76115;SDS011;64847;45.778;12.802;2023-06-10T08:05:11;3.70;;;3.50;;
76115;SDS011;64847;45.778;12.802;2023-06-10T08:07:37;4.65;;;4.35;;
76115;SDS011;64847;45.778;12.802;2023-06-10T08:10:02;4.07;;;3.83;;
76115;SDS011;64847;45.778;12.802;2023-06-10T08:12:29;4.75;;;4.43;;
76115;SDS011;64847;45.778;12.802;2023-06-10T08:14:55;4.97;;;4.72;;
76115;SDS011;64847;45.778;12.802;2023-06-10T08:17:21;5.07;;;4.75;;
76115;SDS011;64847;45.778;12.802;2023-06-10T08:19:46;3.80;;;3.60;;
76115;SDS011;64847;45.778;12.802;2023-06-10T08:22:11;3.75;;;3.55;;
76115;SDS011;64847;45.778;12.802;2023-06-10T08:24:37;4.65;;;4.38;;
76115;SDS011;64847;45.778;12.802;2023-06-10T08:27:02;3.83;;;3.63;;
76115;SDS011;64847;45.778;12.802;2023-06-10T08:29:28;3.60;;;3.40;;
76115;SDS011;64847;45.778;12.802;2023-06-10T08:31:55;3.70;;;3.50;;
76115;SDS011;64847;45.778;12.802;2023-06-10T08:34:20;3.42;;;3.25;;
76115;SDS011;64847;45.778;12.802;2023-06-10T08:36:45;3.47;;;3.33;;
76115;SDS011;64847;45.778;12.802;2023-06-10T08:39:11;2.80;;;2.70;;
76115;SDS011;64847;45.778;12.802;2023-06-10T08:41:36;3.00;;;2.90;;
76115;SDS011;64847;45.778;12.802;2023-06-10T08:46:40;3.30;;;3.17;;
76115;SDS011;64847;45.778;12.802;2023-06-10T08:49:07;3.03;;;2.88;;
76115;SDS011;64847;45.778;12.802;2023-06-10T08:51:32;3.60;;;3.45;;
76115;SDS011;64847;45.778;12.802;2023-06-10T08:54:01;3.53;;;3.40;;
76115;SDS011;64847;45.778;12.802;2023-06-10T08:56:30;3.30;;;3.20;;
76115;SDS011;64847;45.778;12.802;2023-06-10T08:59:01;3.22;;;3.13;;
76115;SDS011;64847;45.778;12.802;2023-06-10T09:01:26;4.70;;;4.40;;
76115;SDS011;64847;45.778;12.802;2023-06-10T09:03:52;3.75;;;3.55;;
76115;SDS011;64847;45.778;12.802;2023-06-10T09:06:18;4.80;;;4.50;;
76115;SDS011;64847;45.778;12.802;2023-06-10T09:08:44;3.53;;;3.38;;
76115;SDS011;64847;45.778;12.802;2023-06-10T09:11:09;3.63;;;3.47;;
76115;SDS011;64847;45.778;12.802;2023-06-10T09:13:35;3.63;;;3.42;;
76115;SDS011;64847;45.778;12.802;2023-06-10T09:16:00;3.25;;;3.08;;
76115;SDS011;64847;45.778;12.802;2023-06-10T09:18:30;4.75;;;4.45;;
76115;SDS011;64847;45.778;12.802;2023-06-10T09:20:55;3.97;;;3.67;;
76115;SDS011;64847;45.778;12.802;2023-06-10T09:23:21;4.60;;;4.40;;
76115;SDS011;64847;45.778;12.802;2023-06-10T09:25:51;4.07;;;3.90;;
76115;SDS011;64847;45.778;12.802;2023-06-10T09:28:21;3.35;;;3.15;;
76115;SDS011;64847;45.778;12.802;2023-06-10T09:30:46;4.03;;;3.83;;
76115;SDS011;64847;45.778;12.802;2023-06-10T09:33:12;3.80;;;3.60;;
76115;SDS011;64847;45.778;12.802;2023-06-10T09:35:47;4.13;;;3.92;;
76115;SDS011;64847;45.778;12.802;2023-06-10T09:38:14;3.65;;;3.45;;
76115;SDS011;64847;45.778;12.802;2023-06-10T09:40:53;3.35;;;3.25;;
76115;SDS011;64847;45.778;12.802;2023-06-10T09:43:19;2.92;;;2.83;;
76115;SDS011;64847;45.778;12.802;2023-06-10T09:45:49;3.05;;;2.95;;
76115;SDS011;64847;45.778;12.802;2023-06-10T09:48:15;3.05;;;2.95;;
76115;SDS011;64847;45.778;12.802;2023-06-10T09:50:43;4.00;;;3.70;;
76115;SDS011;64847;45.778;12.802;2023-06-10T09:53:10;3.20;;;3.00;;
76115;SDS011;64847;45.778;12.802;2023-06-10T09:55:39;3.15;;;3.05;;
76115;SDS011;64847;45.778;12.802;2023-06-10T09:58:05;3.72;;;3.53;;
76115;SDS011;64847;45.778;12.802;2023-06-10T10:00:34;4.00;;;3.80;;
76115;SDS011;64847;45.778;12.802;2023-06-10T10:02:59;3.35;;;3.25;;
76115;SDS011;64847;45.778;12.802;2023-06-10T10:05:25;3.85;;;3.65;;
76115;SDS011;64847;45.778;12.802;2023-06-10T10:07:51;3.30;;;3.20;;
76115;SDS011;64847;45.778;12.802;2023-06-10T10:10:18;3.88;;;3.67;;
76115;SDS011;64847;45.778;12.802;2023-06-10T10:12:46;3.33;;;3.22;;
76115;SDS011;64847;45.778;12.802;2023-06-10T10:15:12;3.20;;;3.10;;
76115;SDS011;64847;45.778;12.802;2023-06-10T10:17:40;3.90;;;3.70;;
76115;SDS011;64847;45.778;12.802;2023-06-10T10:20:08;3.60;;;3.40;;
76115;SDS011;64847;45.778;12.802;2023-06-10T10:22:38;3.45;;;3.30;;
76115;SDS011;64847;45.778;12.802;2023-06-10T10:25:06;3.70;;;3.60;;
76115;SDS011;64847;45.778;12.802;2023-06-10T10:27:36;3.45;;;3.25;;
76115;SDS011;64847;45.778;12.802;2023-06-10T10:30:17;7.72;;;4.15;;
76115;SDS011;64847;45.778;12.802;2023-06-10T10:32:59;3.50;;;3.20;;
76115;SDS011;64847;45.778;12.802;2023-06-10T10:35:31;3.53;;;3.33;;
76115;SDS011;64847;45.778;12.802;2023-06-10T10:37:58;3.42;;;3.13;;
76115;SDS011;64847;45.778;12.802;2023-06-10T10:40:24;3.08;;;2.97;;
76115;SDS011;64847;45.778;12.802;2023-06-10T10:42:51;3.33;;;3.13;;
76115;SDS011;64847;45.778;12.802;2023-06-10T10:45:17;3.30;;;3.10;;
76115;SDS011;64847;45.778;12.802;2023-06-10T10:47:44;3.20;;;3.03;;
76115;SDS011;64847;45.778;12.802;2023-06-10T10:50:17;3.55;;;3.35;;
76115;SDS011;64847;45.778;12.802;2023-06-10T10:53:02;3.50;;;3.30;;
76115;SDS011;64847;45.778;12.802;2023-06-10T10:55:28;3.42;;;3.22;;
76115;SDS011;64847;45.778;12.802;2023-06-10T10:58:07;3.53;;;3.35;;
76115;SDS011;64847;45.778;12.802;2023-06-10T11:05:39;3.45;;;3.35;;
76115;SDS011;64847;45.778;12.802;2023-06-10T11:08:07;3.28;;;3.13;;
76115;SDS011;64847;45.778;12.802;2023-06-10T11:10:34;2.97;;;2.88;;
76115;SDS011;64847;45.778;12.802;2023-06-10T11:13:13;3.25;;;3.15;;
76115;SDS011;64847;45.778;12.802;2023-06-10T11:15:43;3.08;;;2.97;;
76115;SDS011;64847;45.778;12.802;2023-06-10T11:18:10;2.60;;;2.50;;
76115;SDS011;64847;45.778;12.802;2023-06-10T11:26:14;3.22;;;2.92;;
76115;SDS011;64847;45.778;12.802;2023-06-10T11:31:21;2.47;;;2.38;;
76115;SDS011;64847;45.778;12.802;2023-06-10T11:33:47;2.70;;;2.60;;
76115;SDS011;64847;45.778;12.802;2023-06-10T11:36:13;2.78;;;2.67;;
76115;SDS011;64847;45.778;12.802;2023-06-10T11:38:40;2.78;;;2.67;;
76115;SDS011;64847;45.778;12.802;2023-06-10T11:41:06;2.75;;;2.65;;
76115;SDS011;64847;45.778;12.802;2023-06-10T11:43:32;2.35;;;2.25;;
76115;SDS011;64847;45.778;12.802;2023-06-10T11:45:58;2.60;;;2.50;;
76115;SDS011;64847;45.778;12.802;2023-06-10T11:48:24;3.30;;;3.10;;
76115;SDS011;64847;45.778;12.802;2023-06-10T11:50:53;3.20;;;3.10;;
76115;SDS011;64847;45.778;12.802;2023-06-10T11:53:18;2.63;;;2.53;;
76115;SDS011;64847;45.778;12.802;2023-06-10T11:55:44;2.97;;;2.88;;
76115;SDS011;64847;45.778;12.802;2023-06-10T11:58:14;3.20;;;3.00;;
76115;SDS011;64847;45.778;12.802;2023-06-10T12:00:47;2.97;;;2.88;;
76115;SDS011;64847;45.778;12.802;2023-06-10T12:03:13;2.85;;;2.75;;
76115;SDS011;64847;45.778;12.802;2023-06-10T12:05:39;2.75;;;2.65;;
76115;SDS011;64847;45.778;12.802;2023-06-10T12:08:11;2.75;;;2.55;;
76115;SDS011;64847;45.778;12.802;2023-06-10T12:10:40;3.00;;;2.90;;
76115;SDS011;64847;45.778;12.802;2023-06-10T12:13:07;3.40;;;3.30;;
76115;SDS011;64847;45.778;12.802;2023-06-10T12:15:34;3.45;;;3.25;;
76115;SDS011;64847;45.778;12.802;2023-06-10T12:17:59;3.38;;;3.28;;
76115;SDS011;64847;45.778;12.802;2023-06-10T12:20:28;3.40;;;3.30;;
76115;SDS011;64847;45.778;12.802;2023-06-10T12:22:55;3.53;;;3.33;;
76115;SDS011;64847;45.778;12.802;2023-06-10T12:25:24;3.03;;;2.92;;
76115;SDS011;64847;45.778;12.802;2023-06-10T12:27:52;4.10;;;3.80;;
76115;SDS011;64847;45.778;12.802;2023-06-10T12:30:22;4.05;;;3.85;;
76115;SDS011;64847;45.778;12.802;2023-06-10T12:32:49;4.43;;;4.22;;
76115;SDS011;64847;45.778;12.802;2023-06-10T12:35:19;3.95;;;3.72;;
76115;SDS011;64847;45.778;12.802;2023-06-10T12:38:04;4.65;;;4.45;;
76115;SDS011;64847;45.778;12.802;2023-06-10T12:40:36;4.13;;;3.92;;
76115;SDS011;64847;45.778;12.802;2023-06-10T12:43:05;3.45;;;3.33;;
76115;SDS011;64847;45.778;12.802;2023-06-10T12:45:31;3.65;;;3.45;;
76115;SDS011;64847;45.778;12.802;2023-06-10T12:48:07;3.85;;;3.65;;
76115;SDS011;64847;45.778;12.802;2023-06-10T12:50:55;4.30;;;4.10;;
76115;SDS011;64847;45.778;12.802;2023-06-10T12:53:21;4.03;;;3.83;;
76115;SDS011;64847;45.778;12.802;2023-06-10T12:55:53;4.53;;;4.32;;
76115;SDS011;64847;45.778;12.802;2023-06-10T12:58:19;4.53;;;4.22;;
76115;SDS011;64847;45.778;12.802;2023-06-10T13:00:45;4.57;;;4.28;;
76115;SDS011;64847;45.778;12.802;2023-06-10T13:03:10;4.68;;;4.38;;
76115;SDS011;64847;45.778;12.802;2023-06-10T13:05:36;5.47;;;5.07;;
76115;SDS011;64847;45.778;12.802;2023-06-10T13:08:04;4.82;;;4.53;;
76115;SDS011;64847;45.778;12.802;2023-06-10T13:10:33;4.45;;;4.13;;
76115;SDS011;64847;45.778;12.802;2023-06-10T13:12:59;5.03;;;4.63;;
76115;SDS011;64847;45.778;12.802;2023-06-10T13:15:25;4.50;;;4.20;;
76115;SDS011;64847;45.778;12.802;2023-06-10T13:17:51;4.55;;;4.35;;
76115;SDS011;64847;45.778;12.802;2023-06-10T13:20:17;4.95;;;4.55;;
76115;SDS011;64847;45.778;12.802;2023-06-10T13:22:42;4.28;;;4.03;;
76115;SDS011;64847;45.778;12.802;2023-06-10T13:25:08;4.93;;;4.63;;
76115;SDS011;64847;45.778;12.802;2023-06-10T13:27:34;4.95;;;4.65;;
76115;SDS011;64847;45.778;12.802;2023-06-10T13:30:03;5.47;;;5.18;;
76115;SDS011;64847;45.778;12.802;2023-06-10T13:32:29;4.25;;;4.05;;
76115;SDS011;64847;45.778;12.802;2023-06-10T13:34:54;4.28;;;4.03;;
76115;SDS011;64847;45.778;12.802;2023-06-10T13:37:20;5.93;;;5.53;;
76115;SDS011;64847;45.778;12.802;2023-06-10T13:39:45;4.90;;;4.53;;
76115;SDS011;64847;45.778;12.802;2023-06-10T13:42:16;5.07;;;4.68;;
76115;SDS011;64847;45.778;12.802;2023-06-10T13:44:42;4.53;;;4.20;;
76115;SDS011;64847;45.778;12.802;2023-06-10T13:47:08;5.10;;;4.80;;
76115;SDS011;64847;45.778;12.802;2023-06-10T13:49:33;4.40;;;4.20;;
76115;SDS011;64847;45.778;12.802;2023-06-10T13:51:59;4.45;;;4.15;;
76115;SDS011;64847;45.778;12.802;2023-06-10T13:54:24;5.03;;;4.65;;
76115;SDS011;64847;45.778;12.802;2023-06-10T13:56:50;4.65;;;4.35;;
76115;SDS011;64847;45.778;12.802;2023-06-10T13:59:15;6.00;;;5.60;;
76115;SDS011;64847;45.778;12.802;2023-06-10T14:01:41;4.22;;;4.03;;
76115;SDS011;64847;45.778;12.802;2023-06-10T14:04:07;4.82;;;4.53;;
76115;SDS011;64847;45.778;12.802;2023-06-10T14:06:33;4.57;;;4.28;;
76115;SDS011;64847;45.778;12.802;2023-06-10T14:08:59;5.45;;;5.13;;
76115;SDS011;64847;45.778;12.802;2023-06-10T14:11:24;4.40;;;4.20;;
76115;SDS011;64847;45.778;12.802;2023-06-10T14:13:50;4.53;;;4.28;;
76115;SDS011;64847;45.778;12.802;2023-06-10T14:16:16;4.50;;;4.13;;
76115;SDS011;64847;45.778;12.802;2023-06-10T14:18:41;5.07;;;4.78;;
76115;SDS011;64847;45.778;12.802;2023-06-10T14:21:06;4.40;;;4.07;;
76115;SDS011;64847;45.778;12.802;2023-06-10T14:23:32;4.68;;;4.38;;
76115;SDS011;64847;45.778;12.802;2023-06-10T14:25:57;4.63;;;4.38;;
76115;SDS011;64847;45.778;12.802;2023-06-10T14:28:23;4.30;;;4.10;;
76115;SDS011;64847;45.778;12.802;2023-06-10T14:30:50;3.83;;;3.63;;
76115;SDS011;64847;45.778;12.802;2023-06-10T14:33:16;4.25;;;4.05;;
76115;SDS011;64847;45.778;12.802;2023-06-10T14:35:42;4.35;;;4.15;;
76115;SDS011;64847;45.778;12.802;2023-06-10T14:38:08;4.85;;;4.55;;
76115;SDS011;64847;45.778;12.802;2023-06-10T14:40:33;4.20;;;4.00;;
76115;SDS011;64847;45.778;12.802;2023-06-10T14:42:59;4.38;;;4.07;;
76115;SDS011;64847;45.778;12.802;2023-06-10T14:45:26;3.35;;;3.15;;
76115;SDS011;64847;45.778;12.802;2023-06-10T14:47:52;3.63;;;3.42;;